Bo Vega Baja, Puerto Rico
Current Conditions -  °F | °C
As of 2:53 PM on Sunday 23 Nov 2014 (Local Time) from TJNR Reporting Station
Clear Clear  
Wind Chill: 85°   Ceiling: Unl
Heat Index: 90°   Visibility: 10mi
Dew Point: 71°   Wind: 15mph
Humidity: 63%   Direction: 80°E
Pressure: 30.01"   Gusts: 21mph
Location:  18.3304°N, 65.6573°W
Report Text: TJNR 231853Z AUTO 08013G18KT 10SM CLR 29/22 A3001 RMK AO2 SLP161 T02940217 $
Loading
Personal Weather Stations






























Interactive Weather Map New forecast layout! Learn more

10-Day Weather Forecast

Advertisements
Track Severe Weather on mobile